sensor_id;sensor_type;location;lat;lon;timestamp;pressure;altitude;pressure_sealevel;temperature;humidity
67740;BME280;54536;50.090;14.420;2023-02-12T00:01:07;101137.41;;;9.05;58.77
67740;BME280;54536;50.090;14.420;2023-02-12T00:03:35;101137.09;;;9.11;58.35
67740;BME280;54536;50.090;14.420;2023-02-12T00:06:01;101144.28;;;9.08;59.24
67740;BME280;54536;50.090;14.420;2023-02-12T00:08:27;101152.09;;;9.09;58.29
67740;BME280;54536;50.090;14.420;2023-02-12T00:10:54;101142.66;;;9.05;58.92
67740;BME280;54536;50.090;14.420;2023-02-12T00:13:20;101137.78;;;8.99;59.21
67740;BME280;54536;50.090;14.420;2023-02-12T00:15:46;101143.34;;;9.09;59.02
67740;BME280;54536;50.090;14.420;2023-02-12T00:18:12;101127.94;;;9.03;59.08
67740;BME280;54536;50.090;14.420;2023-02-12T00:20:39;101132.44;;;9.01;59.18
67740;BME280;54536;50.090;14.420;2023-02-12T00:23:05;101133.78;;;9.08;58.85
67740;BME280;54536;50.090;14.420;2023-02-12T00:25:31;101135.47;;;9.09;58.72
67740;BME280;54536;50.090;14.420;2023-02-12T00:27:58;101124.22;;;9.07;58.91
67740;BME280;54536;50.090;14.420;2023-02-12T00:30:24;101133.28;;;9.01;58.90
67740;BME280;54536;50.090;14.420;2023-02-12T00:32:50;101128.28;;;8.97;59.24
67740;BME280;54536;50.090;14.420;2023-02-12T00:35:17;101135.47;;;8.93;58.98
67740;BME280;54536;50.090;14.420;2023-02-12T00:37:43;101137.06;;;8.96;59.21
67740;BME280;54536;50.090;14.420;2023-02-12T00:40:09;101136.00;;;9.00;59.15
67740;BME280;54536;50.090;14.420;2023-02-12T00:42:35;101144.19;;;8.94;59.20
67740;BME280;54536;50.090;14.420;2023-02-12T00:45:02;101139.09;;;8.90;59.00
67740;BME280;54536;50.090;14.420;2023-02-12T00:47:28;101136.81;;;8.84;59.34
67740;BME280;54536;50.090;14.420;2023-02-12T00:49:54;101141.47;;;8.95;59.25
67740;BME280;54536;50.090;14.420;2023-02-12T00:52:20;101140.41;;;8.99;58.66
67740;BME280;54536;50.090;14.420;2023-02-12T00:54:46;101138.31;;;8.88;58.88
67740;BME280;54536;50.090;14.420;2023-02-12T00:57:12;101137.78;;;8.99;58.67
67740;BME280;54536;50.090;14.420;2023-02-12T00:59:39;101146.81;;;8.94;59.08
67740;BME280;54536;50.090;14.420;2023-02-12T01:02:07;101145.34;;;8.88;59.08
67740;BME280;54536;50.090;14.420;2023-02-12T01:04:33;101152.38;;;8.87;59.12
67740;BME280;54536;50.090;14.420;2023-02-12T01:07:00;101152.06;;;8.94;59.04
67740;BME280;54536;50.090;14.420;2023-02-12T01:09:26;101149.16;;;8.98;59.10
67740;BME280;54536;50.090;14.420;2023-02-12T01:11:52;101149.94;;;9.00;59.34
67740;BME280;54536;50.090;14.420;2023-02-12T01:14:19;101152.41;;;9.03;59.02
67740;BME280;54536;50.090;14.420;2023-02-12T01:16:46;101145.72;;;8.98;59.21
67740;BME280;54536;50.090;14.420;2023-02-12T01:19:12;101152.81;;;8.96;59.16
67740;BME280;54536;50.090;14.420;2023-02-12T01:21:38;101150.69;;;9.02;59.27
67740;BME280;54536;50.090;14.420;2023-02-12T01:24:05;101161.63;;;9.10;58.89
67740;BME280;54536;50.090;14.420;2023-02-12T01:26:32;101160.63;;;9.13;59.72
67740;BME280;54536;50.090;14.420;2023-02-12T01:29:02;101165.38;;;9.06;59.67
67740;BME280;54536;50.090;14.420;2023-02-12T01:31:32;101163.59;;;9.07;60.05
67740;BME280;54536;50.090;14.420;2023-02-12T01:34:00;101160.97;;;9.07;60.19
67740;BME280;54536;50.090;14.420;2023-02-12T01:36:28;101163.16;;;9.14;59.80
67740;BME280;54536;50.090;14.420;2023-02-12T01:38:55;101165.38;;;9.06;60.16
67740;BME280;54536;50.090;14.420;2023-02-12T01:41:26;101165.88;;;9.13;60.67
67740;BME280;54536;50.090;14.420;2023-02-12T01:44:18;101172.97;;;9.11;60.55
67740;BME280;54536;50.090;14.420;2023-02-12T01:46:57;101172.81;;;9.14;60.33
67740;BME280;54536;50.090;14.420;2023-02-12T01:49:32;101174.81;;;9.09;60.13
67740;BME280;54536;50.090;14.420;2023-02-12T01:52:24;101169.84;;;9.20;60.42
67740;BME280;54536;50.090;14.420;2023-02-12T01:54:59;101175.09;;;9.04;60.14
67740;BME280;54536;50.090;14.420;2023-02-12T01:57:30;101179.56;;;9.02;60.43
67740;BME280;54536;50.090;14.420;2023-02-12T02:00:01;101169.25;;;9.15;60.22
67740;BME280;54536;50.090;14.420;2023-02-12T02:02:31;101170.88;;;9.18;60.34
67740;BME280;54536;50.090;14.420;2023-02-12T02:05:02;101176.28;;;9.14;59.89
67740;BME280;54536;50.090;14.420;2023-02-12T02:07:29;101167.50;;;9.16;59.75
67740;BME280;54536;50.090;14.420;2023-02-12T02:09:57;101179.41;;;9.21;59.86
67740;BME280;54536;50.090;14.420;2023-02-12T02:12:29;101177.63;;;9.22;59.37
67740;BME280;54536;50.090;14.420;2023-02-12T02:15:14;101175.00;;;9.22;59.88
67740;BME280;54536;50.090;14.420;2023-02-12T02:30:51;101185.44;;;9.23;59.94
67740;BME280;54536;50.090;14.420;2023-02-12T02:41:18;101190.53;;;9.26;60.22
67740;BME280;54536;50.090;14.420;2023-02-12T02:43:51;101186.53;;;9.19;59.78
67740;BME280;54536;50.090;14.420;2023-02-12T02:46:31;101191.44;;;9.25;60.48
67740;BME280;54536;50.090;14.420;2023-02-12T02:49:05;101181.19;;;9.21;60.23
67740;BME280;54536;50.090;14.420;2023-02-12T02:51:39;101183.41;;;9.28;59.96
67740;BME280;54536;50.090;14.420;2023-02-12T02:54:38;101190.25;;;9.31;59.56
67740;BME280;54536;50.090;14.420;2023-02-12T02:57:16;101186.53;;;9.35;59.98
67740;BME280;54536;50.090;14.420;2023-02-12T02:59:54;101190.19;;;9.32;59.97
67740;BME280;54536;50.090;14.420;2023-02-12T03:02:27;101187.63;;;9.31;59.81
67740;BME280;54536;50.090;14.420;2023-02-12T03:05:13;101200.09;;;9.27;60.43
67740;BME280;54536;50.090;14.420;2023-02-12T03:07:56;101205.09;;;9.32;60.12
67740;BME280;54536;50.090;14.420;2023-02-12T03:10:30;101207.19;;;9.41;59.84
67740;BME280;54536;50.090;14.420;2023-02-12T03:13:09;101210.59;;;9.43;59.82
67740;BME280;54536;50.090;14.420;2023-02-12T03:18:12;101216.88;;;9.41;59.99
67740;BME280;54536;50.090;14.420;2023-02-12T03:20:46;101220.09;;;9.30;60.05
67740;BME280;54536;50.090;14.420;2023-02-12T03:23:43;101219.25;;;9.29;60.56
67740;BME280;54536;50.090;14.420;2023-02-12T03:26:19;101222.78;;;9.44;59.88
67740;BME280;54536;50.090;14.420;2023-02-12T03:28:47;101224.34;;;9.48;59.46
67740;BME280;54536;50.090;14.420;2023-02-12T03:31:35;101224.75;;;9.41;60.06
67740;BME280;54536;50.090;14.420;2023-02-12T03:42:20;101228.22;;;9.41;60.64
67740;BME280;54536;50.090;14.420;2023-02-12T03:44:59;101239.31;;;9.46;59.87
67740;BME280;54536;50.090;14.420;2023-02-12T03:47:51;101237.81;;;9.42;60.57
67740;BME280;54536;50.090;14.420;2023-02-12T03:50:32;101242.69;;;9.32;59.97
67740;BME280;54536;50.090;14.420;2023-02-12T03:53:04;101242.09;;;9.43;60.55
67740;BME280;54536;50.090;14.420;2023-02-12T03:55:35;101244.75;;;9.43;60.15
67740;BME280;54536;50.090;14.420;2023-02-12T03:58:09;101255.91;;;9.47;59.98
67740;BME280;54536;50.090;14.420;2023-02-12T04:00:37;101257.34;;;9.36;59.97
67740;BME280;54536;50.090;14.420;2023-02-12T04:03:06;101254.56;;;9.40;60.50
67740;BME280;54536;50.090;14.420;2023-02-12T04:05:32;101253.28;;;9.47;60.66
67740;BME280;54536;50.090;14.420;2023-02-12T04:07:59;101257.88;;;9.43;60.13
67740;BME280;54536;50.090;14.420;2023-02-12T04:10:35;101257.19;;;9.40;60.44
67740;BME280;54536;50.090;14.420;2023-02-12T04:16:00;101265.91;;;9.40;60.92
67740;BME280;54536;50.090;14.420;2023-02-12T04:18:42;101269.00;;;9.31;61.61
67740;BME280;54536;50.090;14.420;2023-02-12T04:24:36;101269.00;;;9.31;61.83
67740;BME280;54536;50.090;14.420;2023-02-12T04:32:59;101282.75;;;9.36;61.57
67740;BME280;54536;50.090;14.420;2023-02-12T04:35:34;101288.25;;;9.31;61.60
67740;BME280;54536;50.090;14.420;2023-02-12T04:38:22;101297.25;;;9.43;61.96
67740;BME280;54536;50.090;14.420;2023-02-12T04:40:51;101291.06;;;9.44;61.84
67740;BME280;54536;50.090;14.420;2023-02-12T04:43:31;101290.69;;;9.34;62.54
67740;BME280;54536;50.090;14.420;2023-02-12T04:46:00;101288.25;;;9.31;62.70
67740;BME280;54536;50.090;14.420;2023-02-12T04:48:27;101292.47;;;9.34;62.29
67740;BME280;54536;50.090;14.420;2023-02-12T04:50:53;101296.44;;;9.25;62.39
67740;BME280;54536;50.090;14.420;2023-02-12T04:53:19;101290.63;;;9.36;62.21
67740;BME280;54536;50.090;14.420;2023-02-12T04:55:46;101298.03;;;9.45;62.48
67740;BME280;54536;50.090;14.420;2023-02-12T04:58:13;101288.53;;;9.43;62.36
67740;BME280;54536;50.090;14.420;2023-02-12T05:00:39;101292.06;;;9.42;62.23
67740;BME280;54536;50.090;14.420;2023-02-12T05:03:05;101294.53;;;9.45;62.20
67740;BME280;54536;50.090;14.420;2023-02-12T05:05:31;101292.06;;;9.42;62.61
67740;BME280;54536;50.090;14.420;2023-02-12T05:07:57;101290.88;;;9.31;62.27
67740;BME280;54536;50.090;14.420;2023-02-12T05:10:24;101298.56;;;9.34;62.67
67740;BME280;54536;50.090;14.420;2023-02-12T05:12:53;101307.66;;;9.45;62.20
67740;BME280;54536;50.090;14.420;2023-02-12T05:15:20;101305.78;;;9.31;62.60
67740;BME280;54536;50.090;14.420;2023-02-12T05:17:47;101305.09;;;9.27;62.83
67740;BME280;54536;50.090;14.420;2023-02-12T05:20:13;101303.41;;;9.26;62.86
67740;BME280;54536;50.090;14.420;2023-02-12T05:22:40;101303.47;;;9.25;62.92
67740;BME280;54536;50.090;14.420;2023-02-12T05:25:06;101312.03;;;9.28;63.13
67740;BME280;54536;50.090;14.420;2023-02-12T05:27:32;101322.53;;;9.28;63.23
67740;BME280;54536;50.090;14.420;2023-02-12T05:29:58;101320.53;;;9.33;62.88
67740;BME280;54536;50.090;14.420;2023-02-12T05:32:24;101316.03;;;9.35;63.09
67740;BME280;54536;50.090;14.420;2023-02-12T05:34:50;101318.31;;;9.42;62.44
67740;BME280;54536;50.090;14.420;2023-02-12T05:37:16;101325.34;;;9.41;62.41
67740;BME280;54536;50.090;14.420;2023-02-12T05:39:42;101330.69;;;9.40;62.49
67740;BME280;54536;50.090;14.420;2023-02-12T05:42:08;101330.22;;;9.49;62.51
67740;BME280;54536;50.090;14.420;2023-02-12T05:44:34;101335.19;;;9.37;62.25
67740;BME280;54536;50.090;14.420;2023-02-12T05:47:00;101339.00;;;9.32;62.93
67740;BME280;54536;50.090;14.420;2023-02-12T05:49:26;101333.03;;;9.28;62.96
67740;BME280;54536;50.090;14.420;2023-02-12T05:51:52;101328.50;;;9.32;62.66
67740;BME280;54536;50.090;14.420;2023-02-12T05:54:18;101338.78;;;9.19;62.93
67740;BME280;54536;50.090;14.420;2023-02-12T05:56:46;101338.00;;;9.17;63.03
67740;BME280;54536;50.090;14.420;2023-02-12T05:59:15;101344.88;;;9.20;63.53
67740;BME280;54536;50.090;14.420;2023-02-12T06:01:43;101348.66;;;9.14;63.43
67740;BME280;54536;50.090;14.420;2023-02-12T06:04:15;101344.72;;;9.05;63.23
67740;BME280;54536;50.090;14.420;2023-02-12T06:06:41;101350.50;;;9.12;63.02
67740;BME280;54536;50.090;14.420;2023-02-12T06:09:09;101351.06;;;9.01;63.68
67740;BME280;54536;50.090;14.420;2023-02-12T06:11:36;101363.09;;;9.05;63.49
67740;BME280;54536;50.090;14.420;2023-02-12T06:14:05;101361.78;;;9.14;63.05
67740;BME280;54536;50.090;14.420;2023-02-12T06:16:32;101356.63;;;9.12;63.01
67740;BME280;54536;50.090;14.420;2023-02-12T06:19:01;101360.94;;;9.13;63.17
67740;BME280;54536;50.090;14.420;2023-02-12T06:21:28;101367.44;;;9.06;63.34
67740;BME280;54536;50.090;14.420;2023-02-12T06:23:54;101360.41;;;9.07;63.40
67740;BME280;54536;50.090;14.420;2023-02-12T06:26:21;101369.13;;;9.07;63.01
67740;BME280;54536;50.090;14.420;2023-02-12T06:28:47;101372.03;;;9.01;63.79
67740;BME280;54536;50.090;14.420;2023-02-12T06:33:43;101382.00;;;8.95;63.67
67740;BME280;54536;50.090;14.420;2023-02-12T06:36:09;101379.91;;;9.01;63.03
67740;BME280;54536;50.090;14.420;2023-02-12T06:38:35;101395.09;;;9.12;62.56
67740;BME280;54536;50.090;14.420;2023-02-12T06:41:02;101394.19;;;9.13;62.99
67740;BME280;54536;50.090;14.420;2023-02-12T06:43:28;101390.78;;;9.11;63.15
67740;BME280;54536;50.090;14.420;2023-02-12T06:45:54;101387.94;;;8.98;62.89
67740;BME280;54536;50.090;14.420;2023-02-12T06:48:20;101392.97;;;9.03;62.94
67740;BME280;54536;50.090;14.420;2023-02-12T06:50:46;101395.44;;;9.06;62.42
67740;BME280;54536;50.090;14.420;2023-02-12T06:53:13;101388.63;;;9.02;63.05
67740;BME280;54536;50.090;14.420;2023-02-12T06:55:39;101389.88;;;9.12;62.22
67740;BME280;54536;50.090;14.420;2023-02-12T06:58:04;101397.88;;;8.91;62.78
67740;BME280;54536;50.090;14.420;2023-02-12T07:00:30;101400.06;;;9.01;62.30
67740;BME280;54536;50.090;14.420;2023-02-12T07:02:56;101394.91;;;8.99;61.91
67740;BME280;54536;50.090;14.420;2023-02-12T07:05:23;101395.44;;;9.06;61.39
67740;BME280;54536;50.090;14.420;2023-02-12T07:07:50;101401.38;;;9.09;61.93
67740;BME280;54536;50.090;14.420;2023-02-12T07:10:17;101406.25;;;9.17;61.18
67740;BME280;54536;50.090;14.420;2023-02-12T07:12:44;101418.72;;;9.12;61.06
67740;BME280;54536;50.090;14.420;2023-02-12T07:15:10;101417.59;;;9.00;61.37
67740;BME280;54536;50.090;14.420;2023-02-12T07:17:36;101423.38;;;9.07;60.79
67740;BME280;54536;50.090;14.420;2023-02-12T07:20:03;101427.31;;;9.16;60.59
67740;BME280;54536;50.090;14.420;2023-02-12T07:22:28;101429.94;;;9.16;60.69
67740;BME280;54536;50.090;14.420;2023-02-12T07:24:54;101429.63;;;9.22;60.55
67740;BME280;54536;50.090;14.420;2023-02-12T07:27:20;101440.06;;;9.23;61.01
67740;BME280;54536;50.090;14.420;2023-02-12T07:29:46;101432.25;;;9.22;60.53
67740;BME280;54536;50.090;14.420;2023-02-12T07:32:12;101432.94;;;9.08;60.39
67740;BME280;54536;50.090;14.420;2023-02-12T07:34:38;101443.88;;;8.99;61.39
67740;BME280;54536;50.090;14.420;2023-02-12T07:37:04;101440.06;;;9.06;60.58
67740;BME280;54536;50.090;14.420;2023-02-12T07:39:31;101444.31;;;9.26;59.97
67740;BME280;54536;50.090;14.420;2023-02-12T07:41:57;101447.25;;;9.20;60.71
67740;BME280;54536;50.090;14.420;2023-02-12T07:44:23;101443.06;;;9.16;60.42
67740;BME280;54536;50.090;14.420;2023-02-12T07:46:49;101441.91;;;9.04;60.69
67740;BME280;54536;50.090;14.420;2023-02-12T07:49:18;101445.91;;;9.11;60.94
67740;BME280;54536;50.090;14.420;2023-02-12T07:51:45;101449.06;;;9.18;60.49
67740;BME280;54536;50.090;14.420;2023-02-12T07:54:12;101455.13;;;9.20;60.62
67740;BME280;54536;50.090;14.420;2023-02-12T07:56:40;101460.28;;;9.21;60.88
67740;BME280;54536;50.090;14.420;2023-02-12T07:59:10;101458.81;;;9.16;61.09
67740;BME280;54536;50.090;14.420;2023-02-12T08:01:39;101463.03;;;9.18;60.49
67740;BME280;54536;50.090;14.420;2023-02-12T08:04:12;101466.59;;;9.17;61.16
67740;BME280;54536;50.090;14.420;2023-02-12T08:06:41;101467.69;;;9.13;60.77
67740;BME280;54536;50.090;14.420;2023-02-12T08:09:10;101468.78;;;9.26;60.98
67740;BME280;54536;50.090;14.420;2023-02-12T08:11:38;101463.28;;;9.31;60.81
67740;BME280;54536;50.090;14.420;2023-02-12T08:14:05;101462.19;;;9.35;60.35
67740;BME280;54536;50.090;14.420;2023-02-12T08:16:36;101470.25;;;9.49;60.24
67740;BME280;54536;50.090;14.420;2023-02-12T08:19:04;101478.50;;;9.59;59.53
67740;BME280;54536;50.090;14.420;2023-02-12T08:21:31;101481.06;;;9.43;59.72
67740;BME280;54536;50.090;14.420;2023-02-12T08:23:58;101480.81;;;9.48;60.13
67740;BME280;54536;50.090;14.420;2023-02-12T08:26:36;101487.69;;;9.50;59.87
67740;BME280;54536;50.090;14.420;2023-02-12T08:29:15;101487.38;;;9.56;59.91
67740;BME280;54536;50.090;14.420;2023-02-12T08:31:44;101488.06;;;9.60;59.40
67740;BME280;54536;50.090;14.420;2023-02-12T08:34:19;101482.38;;;9.52;59.90
67740;BME280;54536;50.090;14.420;2023-02-12T08:36:47;101478.97;;;9.50;59.96
67740;BME280;54536;50.090;14.420;2023-02-12T08:39:28;101479.25;;;9.61;60.30
67740;BME280;54536;50.090;14.420;2023-02-12T08:41:58;101486.81;;;9.67;60.21
67740;BME280;54536;50.090;14.420;2023-02-12T08:44:26;101480.41;;;9.73;59.78
67740;BME280;54536;50.090;14.420;2023-02-12T08:46:52;101485.13;;;9.66;60.41
67740;BME280;54536;50.090;14.420;2023-02-12T08:49:23;101485.50;;;9.76;60.08
67740;BME280;54536;50.090;14.420;2023-02-12T08:51:52;101485.41;;;9.77;60.56
67740;BME280;54536;50.090;14.420;2023-02-12T08:54:23;101492.06;;;9.84;60.21
67740;BME280;54536;50.090;14.420;2023-02-12T08:56:49;101493.66;;;9.87;60.45
67740;BME280;54536;50.090;14.420;2023-02-12T08:59:17;101496.72;;;9.79;60.09
67740;BME280;54536;50.090;14.420;2023-02-12T09:01:43;101494.63;;;9.86;60.32
67740;BME280;54536;50.090;14.420;2023-02-12T09:04:16;101499.72;;;9.89;60.53
67740;BME280;54536;50.090;14.420;2023-02-12T09:06:44;101499.75;;;10.05;59.95
67740;BME280;54536;50.090;14.420;2023-02-12T09:09:11;101502.53;;;10.02;59.64
67740;BME280;54536;50.090;14.420;2023-02-12T09:11:37;101506.69;;;10.06;59.42
67740;BME280;54536;50.090;14.420;2023-02-12T09:14:07;101505.19;;;10.02;59.62
67740;BME280;54536;50.090;14.420;2023-02-12T09:16:36;101514.31;;;9.95;60.19
67740;BME280;54536;50.090;14.420;2023-02-12T09:19:03;101514.16;;;9.98;60.53
67740;BME280;54536;50.090;14.420;2023-02-12T09:21:29;101516.47;;;10.04;60.18
67740;BME280;54536;50.090;14.420;2023-02-12T09:23:55;101520.16;;;10.00;60.42
67740;BME280;54536;50.090;14.420;2023-02-12T09:26:23;101524.56;;;9.99;60.71
67740;BME280;54536;50.090;14.420;2023-02-12T09:28:54;101527.66;;;10.07;60.19
67740;BME280;54536;50.090;14.420;2023-02-12T09:31:26;101528.56;;;10.06;59.96
67740;BME280;54536;50.090;14.420;2023-02-12T09:33:57;101524.22;;;10.23;60.37
67740;BME280;54536;50.090;14.420;2023-02-12T09:36:24;101532.34;;;10.18;60.07
67740;BME280;54536;50.090;14.420;2023-02-12T09:38:51;101539.81;;;10.43;61.22
67740;BME280;54536;50.090;14.420;2023-02-12T09:41:43;101526.09;;;10.54;59.96
67740;BME280;54536;50.090;14.420;2023-02-12T09:52:16;101543.69;;;10.36;59.77
67740;BME280;54536;50.090;14.420;2023-02-12T09:54:44;101547.44;;;10.32;59.64
67740;BME280;54536;50.090;14.420;2023-02-12T09:57:29;101552.34;;;10.38;59.44
67740;BME280;54536;50.090;14.420;2023-02-12T10:00:10;101549.81;;;10.37;59.47
67740;BME280;54536;50.090;14.420;2023-02-12T10:02:40;101555.78;;;10.40;59.17
67740;BME280;54536;50.090;14.420;2023-02-12T10:05:32;101554.16;;;10.38;59.30
67740;BME280;54536;50.090;14.420;2023-02-12T10:08:30;101560.25;;;10.38;59.39
67740;BME280;54536;50.090;14.420;2023-02-12T10:11:17;101557.19;;;10.46;59.31
67740;BME280;54536;50.090;14.420;2023-02-12T10:27:44;101550.41;;;10.42;57.71
67740;BME280;54536;50.090;14.420;2023-02-12T10:30:22;101556.50;;;10.42;58.60
67740;BME280;54536;50.090;14.420;2023-02-12T10:32:57;101556.22;;;10.64;57.64
67740;BME280;54536;50.090;14.420;2023-02-12T10:35:25;101554.84;;;10.57;57.65
67740;BME280;54536;50.090;14.420;2023-02-12T10:37:59;101555.72;;;10.73;56.88
67740;BME280;54536;50.090;14.420;2023-02-12T10:40:32;101543.31;;;10.60;57.74
67740;BME280;54536;50.090;14.420;2023-02-12T10:43:00;101548.22;;;10.66;57.44
67740;BME280;54536;50.090;14.420;2023-02-12T10:45:31;101546.19;;;10.55;57.46
67740;BME280;54536;50.090;14.420;2023-02-12T10:48:31;101539.31;;;10.68;56.65
67740;BME280;54536;50.090;14.420;2023-02-12T10:51:24;101537.69;;;10.66;56.55
67740;BME280;54536;50.090;14.420;2023-02-12T10:53:54;101546.81;;;10.76;56.66
67740;BME280;54536;50.090;14.420;2023-02-12T10:56:22;101543.91;;;10.81;56.71
67740;BME280;54536;50.090;14.420;2023-02-12T10:58:55;101547.06;;;10.71;56.60
67740;BME280;54536;50.090;14.420;2023-02-12T11:01:34;101541.28;;;10.65;56.57
67740;BME280;54536;50.090;14.420;2023-02-12T11:04:24;101543.47;;;10.88;56.55
67740;BME280;54536;50.090;14.420;2023-02-12T11:07:04;101540.19;;;10.85;55.95
67740;BME280;54536;50.090;14.420;2023-02-12T11:09:51;101543.06;;;10.80;56.59
67740;BME280;54536;50.090;14.420;2023-02-12T11:12:24;101536.97;;;10.95;56.12
67740;BME280;54536;50.090;14.420;2023-02-12T11:14:54;101537.38;;;11.04;55.33
67740;BME280;54536;50.090;14.420;2023-02-12T11:17:37;101543.41;;;11.06;55.74
67740;BME280;54536;50.090;14.420;2023-02-12T11:20:29;101534.56;;;11.07;55.74
67740;BME280;54536;50.090;14.420;2023-02-12T11:23:05;101533.78;;;11.05;55.63
67740;BME280;54536;50.090;14.420;2023-02-12T11:25:35;101533.63;;;11.08;55.86
67740;BME280;54536;50.090;14.420;2023-02-12T11:28:17;101538.53;;;11.14;55.16
67740;BME280;54536;50.090;14.420;2023-02-12T11:31:02;101537.94;;;11.24;54.93
67740;BME280;54536;50.090;14.420;2023-02-12T11:33:34;101528.16;;;11.27;55.33
67740;BME280;54536;50.090;14.420;2023-02-12T11:36:15;101525.41;;;11.44;54.41
67740;BME280;54536;50.090;14.420;2023-02-12T11:38:54;101534.66;;;11.51;54.05
67740;BME280;54536;50.090;14.420;2023-02-12T11:41:34;101534.66;;;11.51;54.47
67740;BME280;54536;50.090;14.420;2023-02-12T11:44:17;101530.00;;;11.40;54.61
67740;BME280;54536;50.090;14.420;2023-02-12T11:46:53;101527.97;;;11.60;53.37
67740;BME280;54536;50.090;14.420;2023-02-12T11:49:24;101531.63;;;11.57;52.86
67740;BME280;54536;50.090;14.420;2023-02-12T11:51:53;101527.97;;;11.45;53.86
67740;BME280;54536;50.090;14.420;2023-02-12T11:54:25;101533.22;;;11.45;53.86
67740;BME280;54536;50.090;14.420;2023-02-12T11:56:53;101525.03;;;11.50;53.85
67740;BME280;54536;50.090;14.420;2023-02-12T12:02:20;101517.63;;;11.57;53.18
67740;BME280;54536;50.090;14.420;2023-02-12T12:04:53;101524.13;;;11.51;53.56
67740;BME280;54536;50.090;14.420;2023-02-12T12:07:29;101528.84;;;11.60;53.03
67740;BME280;54536;50.090;14.420;2023-02-12T12:10:15;101522.47;;;11.79;52.08
67740;BME280;54536;50.090;14.420;2023-02-12T12:12:55;101524.09;;;11.81;51.39
67740;BME280;54536;50.090;14.420;2023-02-12T12:15:42;101523.31;;;11.79;51.18
67740;BME280;54536;50.090;14.420;2023-02-12T12:18:33;101523.16;;;11.82;52.19
67740;BME280;54536;50.090;14.420;2023-02-12T12:24:20;101516.88;;;11.85;51.40
67740;BME280;54536;50.090;14.420;2023-02-12T12:26:54;101517.44;;;11.90;52.07
67740;BME280;54536;50.090;14.420;2023-02-12T12:32:38;101510.88;;;11.97;51.52
67740;BME280;54536;50.090;14.420;2023-02-12T12:35:10;101510.41;;;11.90;51.44
67740;BME280;54536;50.090;14.420;2023-02-12T12:37:43;101508.34;;;11.80;52.28
67740;BME280;54536;50.090;14.420;2023-02-12T12:40:46;101505.06;;;11.76;51.53
67740;BME280;54536;50.090;14.420;2023-02-12T12:46:11;101504.09;;;11.63;51.52
67740;BME280;54536;50.090;14.420;2023-02-12T12:49:33;101504.03;;;11.79;51.58
67740;BME280;54536;50.090;14.420;2023-02-12T12:52:25;101499.03;;;11.74;51.76
67740;BME280;54536;50.090;14.420;2023-02-12T13:00:53;101497.88;;;11.64;50.68
67740;BME280;54536;50.090;14.420;2023-02-12T13:06:40;101500.25;;;11.83;49.94
67740;BME280;54536;50.090;14.420;2023-02-12T13:20:19;101497.16;;;11.76;49.11
67740;BME280;54536;50.090;14.420;2023-02-12T13:23:04;101501.41;;;11.79;49.92
67740;BME280;54536;50.090;14.420;2023-02-12T13:28:37;101491.31;;;11.71;49.47
67740;BME280;54536;50.090;14.420;2023-02-12T13:31:09;101497.72;;;11.81;48.72
67740;BME280;54536;50.090;14.420;2023-02-12T13:33:57;101495.28;;;11.78;48.87
67740;BME280;54536;50.090;14.420;2023-02-12T13:36:24;101491.31;;;11.71;48.94
67740;BME280;54536;50.090;14.420;2023-02-12T13:38:58;101504.09;;;11.63;49.93
67740;BME280;54536;50.090;14.420;2023-02-12T13:41:29;101506.47;;;11.82;49.43
67740;BME280;54536;50.090;14.420;2023-02-12T13:44:39;101504.84;;;11.65;49.81
67740;BME280;54536;50.090;14.420;2023-02-12T13:46:52;101500.91;;;11.72;49.03
67740;BME280;54536;50.090;14.420;2023-02-12T13:52:26;101494.63;;;11.75;49.13
67740;BME280;54536;50.090;14.420;2023-02-12T13:55:13;101489.72;;;11.68;49.58
67740;BME280;54536;50.090;14.420;2023-02-12T14:03:23;101489.16;;;11.78;49.75
67740;BME280;54536;50.090;14.420;2023-02-12T14:06:15;101489.06;;;11.79;49.45
67740;BME280;54536;50.090;14.420;2023-02-12T14:08:47;101488.50;;;11.74;49.44
67740;BME280;54536;50.090;14.420;2023-02-12T14:11:18;101495.28;;;11.78;49.80
67740;BME280;54536;50.090;14.420;2023-02-12T14:22:01;101499.88;;;11.75;49.97
67740;BME280;54536;50.090;14.420;2023-02-12T14:37:58;101489.78;;;11.67;49.22
67740;BME280;54536;50.090;14.420;2023-02-12T14:45:55;101488.88;;;11.82;49.22
67740;BME280;54536;50.090;14.420;2023-02-12T14:51:32;101492.47;;;11.81;49.52
67740;BME280;54536;50.090;14.420;2023-02-12T14:54:04;101498.00;;;11.77;48.94
67740;BME280;54536;50.090;14.420;2023-02-12T14:56:46;101494.44;;;11.78;49.54
67740;BME280;54536;50.090;14.420;2023-02-12T14:59:18;101504.31;;;11.74;49.90
67740;BME280;54536;50.090;14.420;2023-02-12T15:01:49;101495.47;;;11.75;49.50
67740;BME280;54536;50.090;14.420;2023-02-12T15:04:24;101497.91;;;11.78;49.61
67740;BME280;54536;50.090;14.420;2023-02-12T15:06:58;101496.88;;;11.81;49.37
67740;BME280;54536;50.090;14.420;2023-02-12T15:14:49;101492.91;;;11.73;50.10
67740;BME280;54536;50.090;14.420;2023-02-12T15:17:25;101499.53;;;11.81;49.44
67740;BME280;54536;50.090;14.420;2023-02-12T15:20:03;101504.69;;;11.82;49.96
67740;BME280;54536;50.090;14.420;2023-02-12T15:22:39;101502.16;;;11.81;50.73
67740;BME280;54536;50.090;14.420;2023-02-12T15:25:28;101507.50;;;11.65;49.96
67740;BME280;54536;50.090;14.420;2023-02-12T15:28:02;101517.50;;;11.74;50.29
67740;BME280;54536;50.090;14.420;2023-02-12T15:30:35;101511.34;;;11.73;49.88
67740;BME280;54536;50.090;14.420;2023-02-12T15:33:05;101509.94;;;11.68;50.09
67740;BME280;54536;50.090;14.420;2023-02-12T15:35:35;101510.50;;;11.73;50.27
67740;BME280;54536;50.090;14.420;2023-02-12T15:38:03;101513.50;;;11.67;50.73